Airfield :
LOGIN :

Register | Disclaimer

   EN    FR    IT 

 










Legend :    VFR   Marginal VFR   IFR   Intensive IFR   Very Intensive IFR
Visi :
Ceiling :
>= 8 km
>= 3000ft
5 to 8 km
1000 to 3000 ft
1500m to 5 km
500 to 1000 ft
800 to 1500m
200 to 500 ft
< 800m
< 200 ft
Symbols :   Thunderstorms  Fog  Heavy snow  Heavy precipitations  Wind > 20 kt
SIGMETs :     Misc.  Thunderstorms  Icing  Turbulence  Mountain Waves  Volcanic Ashes







- Airport Elevation : 726 ft
- IATA code : DIJ
- Download approach charts


LFSD - Dijon

CURRENT METAR :
  • 200930Z AUTO 00000KT 0400 R35/0550N FZFG VV/// M01/M01 Q1026

EXPIRED METARs :
  • 200900Z AUTO 00000KT 0350 0300 R35/0400N FZFG VV/// M01/M01 Q1026
  • 200830Z AUTO 00000KT 0350 0300 R35/0400N FZFG VV/// M01/M01 Q1026
  • 200800Z AUTO 00000KT 0350 R35/0450N FZFG VV/// M01/M01 Q1026
  • 200730Z AUTO 00000KT 0450 0400 R35/0600N FZFG VV/// M01/M01 Q1026
  • 200700Z AUTO 00000KT 0450 R35/0550N FZFG VV/// M02/M02 Q1025
  • 200630Z AUTO 00000KT 0550 0500 R35/0650N FZFG VV/// M01/M01 Q1025

Expired Forecast.
No reported NOTAMs for that airfield.



MET'MAP, your aeronautical weather chart ! - Copyright ORBIFLY December 2007 - Disclaimer

ORBIFLY MET'MAP TEAM :

Programming & Development : Alexandra Zaïnal
Concept & Development : Baudouin d'Aumeries
Co-Development & Prog : Marc-Olivier Méhu
Technical & hardware support : Manuel Goepfert

Contact : metmap@orbifly.com




SOURCES & CREDITS :

   NOAA